Time;durP1;ratioP1;P1;durP2;ratioP2;P2;SDS_P1;SDS_P2;PMS_P1;PMS_P2;Temp;Humidity;BMP_temperature;BMP_pressure;BME280_temperature;BME280_humidity;BME280_pressure;Samples;Min_cycle;Max_cycle;Signal;HPM_P1;HPM_P2
2021/09/25 00:01:44;;;;;;;6.30;4.30;;;;;;;16.46;84.54;100717.53;112516;1192;61027;-77
2021/09/25 00:04:11;;;;;;;6.40;4.50;;;;;;;16.46;84.80;100718.27;112514;1191;61183;-79
2021/09/25 00:06:38;;;;;;;9.30;4.70;;;;;;;16.45;84.92;100716.92;112223;1193;74064;-78
2021/09/25 00:09:05;;;;;;;10.50;5.60;;;;;;;16.46;84.94;100716.83;112393;1194;71589;-78
2021/09/25 00:11:31;;;;;;;9.80;4.80;;;;;;;16.46;85.07;100716.83;112263;1192;61128;-79
2021/09/25 00:13:59;;;;;;;8.60;5.40;;;;;;;16.47;85.17;100715.90;112203;1190;62115;-79
2021/09/25 00:16:27;;;;;;;9.70;5.50;;;;;;;16.46;85.36;100712.98;112329;1192;61372;-79
2021/09/25 00:18:56;;;;;;;8.90;4.80;;;;;;;16.46;85.37;100716.59;112276;1193;75702;-79
2021/09/25 00:21:24;;;;;;;8.10;4.70;;;;;;;16.47;85.41;100718.20;112238;1192;71111;-76
2021/09/25 00:23:50;;;;;;;9.80;5.30;;;;;;;16.46;85.57;100720.17;112512;1193;73975;-78
2021/09/25 00:26:17;;;;;;;8.50;5.40;;;;;;;16.47;85.66;100718.52;112419;1192;61017;-76
2021/09/25 00:28:43;;;;;;;6.80;3.70;;;;;;;16.47;85.68;100714.37;112287;1190;61238;-78
2021/09/25 00:31:10;;;;;;;7.70;5.50;;;;;;;16.47;85.67;100717.00;112400;1191;61049;-81
2021/09/25 00:33:36;;;;;;;9.40;5.50;;;;;;;16.47;85.76;100711.81;112344;1193;61094;-79
2021/09/25 00:36:03;;;;;;;9.30;5.90;;;;;;;16.47;85.86;100720.75;112352;1191;61113;-79
2021/09/25 00:38:30;;;;;;;9.30;5.50;;;;;;;16.47;85.95;100719.02;112285;1192;62619;-78
2021/09/25 00:40:56;;;;;;;9.20;6.10;;;;;;;16.47;86.08;100724.16;112280;1190;61049;-78
2021/09/25 00:43:23;;;;;;;9.70;6.10;;;;;;;16.48;86.11;100722.52;112495;1184;75622;-78
2021/09/25 00:45:49;;;;;;;9.30;5.80;;;;;;;16.48;86.04;100720.83;112637;1192;60950;-80
2021/09/25 00:48:16;;;;;;;9.70;6.50;;;;;;;16.48;86.13;100720.48;112610;1191;61046;-80
2021/09/25 00:50:42;;;;;;;6.60;4.30;;;;;;;16.48;86.27;100721.40;112772;1192;61180;-78
2021/09/25 00:53:09;;;;;;;8.60;4.50;;;;;;;16.47;86.27;100719.02;112489;1190;61073;-78
2021/09/25 00:55:36;;;;;;;8.20;5.00;;;;;;;16.47;86.32;100726.39;112613;1190;75649;-79
2021/09/25 00:58:05;;;;;;;8.40;5.90;;;;;;;16.45;86.49;100726.98;112745;1191;70845;-79
2021/09/25 01:00:33;;;;;;;7.40;4.10;;;;;;;16.43;86.61;100722.90;112556;1193;73039;-82
2021/09/25 01:03:00;;;;;;;10.40;6.30;;;;;;;16.43;86.80;100732.84;112497;1190;61588;-80
2021/09/25 01:05:28;;;;;;;12.50;7.30;;;;;;;16.41;86.92;100729.30;112444;1192;61030;-78
2021/09/25 01:07:54;;;;;;;11.10;6.40;;;;;;;16.40;87.10;100723.54;112530;1190;74863;-79
2021/09/25 01:10:21;;;;;;;11.20;7.00;;;;;;;16.40;87.14;100729.14;112438;1190;71009;-79
2021/09/25 01:12:47;;;;;;;9.20;6.50;;;;;;;16.40;87.10;100727.04;112304;1194;73652;-80
2021/09/25 01:15:16;;;;;;;10.30;6.80;;;;;;;16.40;87.14;100728.39;112415;1194;62002;-79
2021/09/25 01:17:43;;;;;;;8.90;6.70;;;;;;;16.40;87.09;100727.23;112306;1190;61547;-80
2021/09/25 01:20:11;;;;;;;10.00;6.60;;;;;;;16.41;87.11;100731.13;112493;1190;74595;-79
2021/09/25 01:22:38;;;;;;;11.30;7.10;;;;;;;16.41;87.20;100727.25;112368;1190;72025;-78
2021/09/25 01:25:09;;;;;;;11.20;6.50;;;;;;;16.41;87.15;100733.64;112370;1190;72541;-78
2021/09/25 01:27:36;;;;;;;12.10;7.00;;;;;;;16.41;87.20;100730.95;112426;1184;61652;-77
2021/09/25 01:30:08;;;;;;;9.80;7.70;;;;;;;16.41;87.16;100734.00;112369;1191;61558;-77
2021/09/25 01:32:36;;;;;;;7.20;5.10;;;;;;;16.40;87.22;100734.73;112609;1192;74862;-77
2021/09/25 01:35:03;;;;;;;11.90;7.70;;;;;;;16.40;87.18;100738.91;112381;1192;70944;-78
2021/09/25 01:37:30;;;;;;;9.90;6.30;;;;;;;16.40;87.07;100744.59;112480;1190;72759;-80
2021/09/25 01:39:56;;;;;;;8.90;6.30;;;;;;;16.41;87.09;100740.59;112421;1190;61052;-79
2021/09/25 01:42:23;;;;;;;10.00;7.00;;;;;;;16.40;87.09;100744.87;112435;1190;61068;-78
2021/09/25 01:44:52;;;;;;;10.30;6.10;;;;;;;16.40;87.06;100740.71;112461;1190;74266;-80
2021/09/25 01:47:19;;;;;;;8.50;5.40;;;;;;;16.40;86.99;100742.73;112584;1193;72545;-79
2021/09/25 01:49:47;;;;;;;11.40;7.60;;;;;;;16.38;86.98;100741.22;112284;1184;72557;-79
2021/09/25 01:52:17;;;;;;;9.20;5.80;;;;;;;16.37;87.13;100739.90;112239;1190;62075;-78
2021/09/25 01:54:45;;;;;;;9.60;6.20;;;;;;;16.36;86.98;100740.23;112403;1190;61065;-77
2021/09/25 01:57:12;;;;;;;11.00;6.90;;;;;;;16.35;86.88;100742.09;112444;1190;74660;-79
2021/09/25 01:59:39;;;;;;;11.80;6.40;;;;;;;16.34;86.72;100745.10;112275;1192;72067;-79
2021/09/25 02:02:06;;;;;;;11.70;6.80;;;;;;;16.34;86.50;100745.63;112387;1192;73671;-79
2021/09/25 02:04:36;;;;;;;9.80;5.80;;;;;;;16.34;86.30;100745.88;112602;1192;61597;-79
2021/09/25 02:07:04;;;;;;;9.00;6.80;;;;;;;16.33;86.30;100742.55;112539;1190;61087;-79
2021/09/25 02:09:30;;;;;;;18.50;7.10;;;;;;;16.32;86.23;100744.99;112454;1190;75651;-78
2021/09/25 02:11:57;;;;;;;8.70;6.60;;;;;;;16.32;86.10;100744.70;112423;1190;71058;-78
2021/09/25 02:14:24;;;;;;;7.20;5.80;;;;;;;16.31;86.05;100743.51;112294;1192;72550;-77
2021/09/25 02:16:50;;;;;;;10.80;6.70;;;;;;;16.30;85.97;100745.20;112482;1190;61004;-78
2021/09/25 02:19:17;;;;;;;10.20;6.70;;;;;;;16.31;85.99;100745.16;112435;1190;61052;-78
2021/09/25 02:21:43;;;;;;;11.60;6.80;;;;;;;16.32;86.10;100746.84;112415;1190;61100;-80
2021/09/25 02:24:10;;;;;;;10.40;6.70;;;;;;;16.31;86.12;100746.71;112432;1191;61023;-79
2021/09/25 02:26:36;;;;;;;10.90;6.70;;;;;;;16.30;86.11;100745.41;112426;1192;61065;-79
2021/09/25 02:29:03;;;;;;;9.80;8.00;;;;;;;16.30;86.08;100744.55;112468;1193;62802;-79
2021/09/25 02:31:30;;;;;;;10.00;7.60;;;;;;;16.29;86.21;100743.88;112398;1190;61039;-78
2021/09/25 02:33:56;;;;;;;12.20;6.50;;;;;;;16.30;86.18;100744.05;112581;1190;74722;-81
2021/09/25 02:36:23;;;;;;;9.20;7.70;;;;;;;16.30;86.24;100748.33;112521;1190;71842;-79
2021/09/25 02:38:49;;;;;;;10.20;7.00;;;;;;;16.31;86.23;100748.70;112476;1190;61581;-79
2021/09/25 02:41:16;;;;;;;9.70;7.10;;;;;;;16.32;86.14;100746.47;112432;1192;61036;-79
2021/09/25 02:43:43;;;;;;;9.30;6.90;;;;;;;16.31;86.12;100748.33;112487;1190;60981;-79
2021/09/25 02:46:09;;;;;;;11.00;7.20;;;;;;;16.30;86.15;100749.53;112344;1190;75933;-81
2021/09/25 02:48:36;;;;;;;12.80;8.00;;;;;;;16.29;86.14;100748.58;112405;1192;61135;-80
2021/09/25 02:51:02;;;;;;;9.10;6.50;;;;;;;16.29;86.22;100752.20;112424;1193;61061;-79
2021/09/25 02:53:29;;;;;;;9.50;8.40;;;;;;;16.29;86.14;100757.15;112614;1184;62945;-79
2021/09/25 02:55:56;;;;;;;10.00;7.30;;;;;;;16.28;86.14;100750.11;112424;1191;61087;-78
2021/09/25 02:58:22;;;;;;;10.10;7.60;;;;;;;16.27;86.27;100753.44;112346;1190;75618;-78
2021/09/25 03:00:49;;;;;;;9.40;6.00;;;;;;;16.27;86.34;100752.98;112294;1192;61055;-78
2021/09/25 03:03:15;;;;;;;13.20;7.60;;;;;;;16.27;86.53;100753.41;112375;1190;72301;-78
2021/09/25 03:05:42;;;;;;;12.40;7.30;;;;;;;16.25;86.62;100752.13;112334;1190;62157;-78
2021/09/25 03:08:09;;;;;;;9.50;7.70;;;;;;;16.24;86.84;100747.73;112359;1192;60921;-77
2021/09/25 03:10:35;;;;;;;9.20;7.30;;;;;;;16.22;87.14;100748.16;112246;1190;60936;-78
2021/09/25 03:13:02;;;;;;;11.60;8.00;;;;;;;16.19;87.50;100750.71;112177;1193;61064;-78
2021/09/25 03:15:29;;;;;;;11.70;9.70;;;;;;;16.16;87.71;100746.48;112228;1190;61039;-78
2021/09/25 03:17:55;;;;;;;10.50;8.90;;;;;;;16.14;87.93;100749.57;112528;1192;61098;-80
2021/09/25 03:20:22;;;;;;;11.70;9.10;;;;;;;16.12;87.96;100752.46;112450;1193;62048;-79
2021/09/25 03:22:48;;;;;;;9.80;7.10;;;;;;;16.11;87.92;100754.65;112228;1190;61031;-78
2021/09/25 03:25:15;;;;;;;11.90;9.30;;;;;;;16.09;88.04;100753.83;112369;1190;70874;-78
2021/09/25 03:27:43;;;;;;;12.80;7.30;;;;;;;16.08;88.23;100755.60;112367;1190;72699;-79
2021/09/25 03:30:12;;;;;;;10.10;6.50;;;;;;;16.06;88.24;100748.73;112252;1190;61836;-79
2021/09/25 03:32:39;;;;;;;14.70;9.00;;;;;;;16.04;88.34;100742.92;112350;1190;61056;-79
2021/09/25 03:35:07;;;;;;;11.20;9.00;;;;;;;16.03;88.22;100739.48;112448;1190;74549;-78
2021/09/25 03:37:33;;;;;;;12.20;9.60;;;;;;;16.02;88.60;100738.60;112336;1190;71256;-78
2021/09/25 03:40:00;;;;;;;11.30;8.50;;;;;;;16.00;88.63;100736.17;112179;1191;62029;-79
2021/09/25 03:42:26;;;;;;;14.40;10.20;;;;;;;15.99;88.48;100741.66;112310;1193;61020;-80
2021/09/25 03:44:53;;;;;;;14.10;10.80;;;;;;;15.98;88.68;100744.84;112393;1190;61027;-78
2021/09/25 03:47:19;;;;;;;11.70;9.10;;;;;;;15.97;88.83;100751.59;112282;1190;61013;-79
2021/09/25 03:49:46;;;;;;;14.10;10.50;;;;;;;15.94;88.79;100750.89;112756;1191;61020;-78
2021/09/25 03:52:12;;;;;;;14.20;11.00;;;;;;;15.94;88.78;100752.09;112299;1193;61030;-79
2021/09/25 03:54:39;;;;;;;12.70;9.30;;;;;;;15.93;88.64;100752.50;112439;1190;62055;-78
2021/09/25 03:57:05;;;;;;;13.60;9.60;;;;;;;15.94;88.57;100750.81;112456;1190;60985;-79
2021/09/25 03:59:32;;;;;;;14.00;10.00;;;;;;;15.93;88.62;100746.73;112330;1192;61097;-78
2021/09/25 04:01:58;;;;;;;11.60;7.30;;;;;;;15.94;88.56;100745.66;112199;1190;61314;-79
2021/09/25 04:04:25;;;;;;;14.20;10.50;;;;;;;15.93;88.62;100748.05;112379;1190;61150;-78
2021/09/25 04:06:52;;;;;;;15.60;9.40;;;;;;;15.92;88.66;100746.41;112450;1193;61987;-79
2021/09/25 04:09:18;;;;;;;15.60;11.50;;;;;;;15.92;88.76;100747.52;112294;1190;61084;-79
2021/09/25 04:11:48;;;;;;;17.10;11.80;;;;;;;15.90;88.93;100750.90;112315;1192;61042;-78
2021/09/25 04:14:18;;;;;;;14.50;11.70;;;;;;;15.90;88.99;100751.14;112454;1190;72324;-79
2021/09/25 04:16:45;;;;;;;15.50;10.50;;;;;;;15.87;89.16;100753.58;112546;1192;73674;-79
2021/09/25 04:19:11;;;;;;;13.30;11.20;;;;;;;15.86;89.26;100753.42;112465;1191;62013;-80
2021/09/25 04:21:38;;;;;;;16.10;13.30;;;;;;;15.85;89.25;100753.96;112390;1190;61026;-78
2021/09/25 04:24:05;;;;;;;12.80;10.30;;;;;;;15.84;89.36;100752.48;112458;1190;61026;-81
2021/09/25 04:26:32;;;;;;;15.80;12.10;;;;;;;15.82;89.50;100754.42;112375;1193;72243;-80
2021/09/25 04:28:58;;;;;;;17.80;9.80;;;;;;;15.82;89.53;100753.76;112637;1192;72580;-79
2021/09/25 04:31:26;;;;;;;14.00;11.00;;;;;;;15.81;89.52;100753.67;112319;1190;62641;-78
2021/09/25 04:33:52;;;;;;;16.70;12.30;;;;;;;15.81;89.50;100752.86;112938;1190;60973;-78
2021/09/25 04:36:19;;;;;;;17.90;11.20;;;;;;;15.81;89.61;100755.70;112336;1191;61115;-80
2021/09/25 04:38:45;;;;;;;14.20;10.80;;;;;;;15.82;89.55;100759.35;113843;1190;60989;-77
2021/09/25 04:41:13;;;;;;;15.00;11.30;;;;;;;15.81;89.59;100763.84;112268;1192;72624;-78
2021/09/25 04:43:39;;;;;;;13.00;9.70;;;;;;;15.81;89.52;100763.02;112343;1191;61726;-78
2021/09/25 04:46:06;;;;;;;15.50;10.80;;;;;;;15.80;89.69;100765.31;112555;1192;61981;-79
2021/09/25 04:48:32;;;;;;;15.60;12.30;;;;;;;15.80;89.61;100768.70;112558;1190;75750;-79
2021/09/25 04:50:59;;;;;;;13.60;11.20;;;;;;;15.80;89.68;100766.52;112479;1192;61055;-80
2021/09/25 04:53:26;;;;;;;12.80;10.40;;;;;;;15.79;89.77;100766.73;112393;1192;74088;-78
2021/09/25 04:55:52;;;;;;;17.90;11.00;;;;;;;15.79;89.78;100766.71;112748;1191;61965;-79
2021/09/25 04:58:23;;;;;;;15.70;11.00;;;;;;;15.78;89.71;100772.20;112583;1191;61052;-80
2021/09/25 05:00:49;;;;;;;15.20;9.40;;;;;;;15.78;89.76;100768.83;112681;1193;75591;-80
2021/09/25 05:03:16;;;;;;;13.60;10.20;;;;;;;15.78;89.75;100778.04;112489;1190;70821;-81
2021/09/25 05:05:43;;;;;;;17.70;11.10;;;;;;;15.78;89.58;100779.80;112432;1192;72570;-80
2021/09/25 05:08:10;;;;;;;14.40;8.80;;;;;;;15.79;89.67;100777.75;112334;1192;63499;-79
2021/09/25 05:10:36;;;;;;;16.10;9.70;;;;;;;15.78;89.59;100776.27;112452;1191;61035;-79
2021/09/25 05:13:02;;;;;;;12.80;9.30;;;;;;;15.77;89.60;100777.67;112370;1190;62213;-80
2021/09/25 05:15:29;;;;;;;11.70;8.70;;;;;;;15.76;89.57;100778.16;112479;1190;60994;-80
2021/09/25 05:17:56;;;;;;;12.20;9.20;;;;;;;15.75;89.73;100777.27;112452;1193;61065;-77
2021/09/25 05:20:22;;;;;;;14.30;9.30;;;;;;;15.75;89.64;100777.72;112298;1191;61135;-80
2021/09/25 05:22:49;;;;;;;13.50;9.20;;;;;;;15.76;89.65;100782.81;112418;1190;61029;-79
2021/09/25 05:25:15;;;;;;;13.90;9.00;;;;;;;15.75;89.61;100781.08;112280;1191;61099;-77
2021/09/25 05:27:42;;;;;;;12.00;8.80;;;;;;;15.76;89.65;100781.95;112203;1190;61102;-79
2021/09/25 05:30:10;;;;;;;15.90;8.60;;;;;;;15.75;89.66;100783.60;112230;1191;72685;-78
2021/09/25 05:32:37;;;;;;;21.90;11.60;;;;;;;15.75;89.75;100782.69;112870;1190;61129;-78
2021/09/25 05:35:05;;;;;;;11.00;7.60;;;;;;;15.74;89.68;100785.20;112384;1190;61004;-77
2021/09/25 05:37:31;;;;;;;12.90;8.80;;;;;;;15.75;89.60;100787.42;112599;1190;74803;-79
2021/09/25 05:39:58;;;;;;;15.90;9.50;;;;;;;15.75;89.50;100787.39;112386;1190;71736;-79
2021/09/25 05:42:26;;;;;;;10.50;7.80;;;;;;;15.76;89.40;100792.33;112433;1190;73623;-79
2021/09/25 05:44:54;;;;;;;15.20;8.80;;;;;;;15.77;89.40;100789.31;112393;1190;63462;-81
2021/09/25 05:47:22;;;;;;;12.70;9.50;;;;;;;15.78;89.19;100796.05;112332;1190;61065;-78
2021/09/25 05:49:48;;;;;;;12.00;9.00;;;;;;;15.77;89.06;100796.03;112525;1190;76041;-81
2021/09/25 05:52:16;;;;;;;16.30;9.70;;;;;;;15.77;88.89;100797.30;112555;1190;70993;-80
2021/09/25 05:54:44;;;;;;;9.90;5.60;;;;;;;15.78;88.73;100802.11;112483;1193;72843;-79
2021/09/25 05:57:11;;;;;;;11.90;8.40;;;;;;;15.80;88.60;100799.93;112403;1191;62871;-80
2021/09/25 05:59:38;;;;;;;18.40;9.60;;;;;;;15.81;88.50;100800.30;112472;1192;61400;-79
2021/09/25 06:02:05;;;;;;;14.90;8.50;;;;;;;15.83;88.54;100795.40;112640;1191;74745;-79
2021/09/25 06:04:33;;;;;;;13.10;9.30;;;;;;;15.85;88.42;100795.28;112456;1192;72039;-79
2021/09/25 06:07:00;;;;;;;11.10;6.70;;;;;;;15.88;88.36;100799.18;112633;1190;73219;-78
2021/09/25 06:09:27;;;;;;;13.00;9.20;;;;;;;15.89;88.31;100802.02;112514;1190;60912;-79
2021/09/25 06:11:54;;;;;;;11.70;7.80;;;;;;;15.89;88.23;100802.67;112353;1190;61879;-78
2021/09/25 06:14:21;;;;;;;17.50;10.20;;;;;;;15.90;88.09;100808.65;112340;1190;75613;-79
2021/09/25 06:16:48;;;;;;;15.70;8.60;;;;;;;15.93;87.88;100812.14;112497;1190;70687;-77
2021/09/25 06:19:15;;;;;;;11.90;8.50;;;;;;;15.93;87.76;100808.20;112438;1192;73617;-80
2021/09/25 06:21:42;;;;;;;9.70;5.90;;;;;;;15.93;87.71;100809.39;112654;1190;61906;-78
2021/09/25 06:24:09;;;;;;;10.40;6.60;;;;;;;15.95;87.65;100805.21;112529;1190;61226;-80
2021/09/25 06:26:36;;;;;;;12.80;8.50;;;;;;;15.96;87.61;100804.48;112565;1190;74735;-80
2021/09/25 06:29:03;;;;;;;12.60;7.80;;;;;;;15.97;87.44;100807.08;112541;1191;72910;-80
2021/09/25 06:31:30;;;;;;;11.90;7.90;;;;;;;15.98;87.29;100804.08;112464;1190;73999;-75
2021/09/25 06:33:57;;;;;;;10.10;7.70;;;;;;;16.00;87.16;100807.25;112252;1190;61058;-75
2021/09/25 06:36:23;;;;;;;9.90;6.30;;;;;;;16.02;87.15;100808.52;112164;1190;61734;-74
2021/09/25 06:38:50;;;;;;;12.30;7.10;;;;;;;16.06;86.98;100810.73;112234;1191;74574;-75
2021/09/25 06:41:17;;;;;;;16.00;9.00;;;;;;;16.07;86.84;100809.61;112149;1193;71029;-75
2021/09/25 06:43:45;;;;;;;12.00;8.70;;;;;;;16.07;86.47;100810.11;112835;1191;72507;-78
2021/09/25 06:46:14;;;;;;;9.60;6.30;;;;;;;16.10;86.49;100811.54;112315;1192;63048;-74
2021/09/25 06:48:42;;;;;;;10.90;7.00;;;;;;;16.12;86.16;100813.81;112910;1190;61737;-75
2021/09/25 06:51:10;;;;;;;9.80;5.40;;;;;;;16.14;86.22;100817.38;112490;1190;75645;-75
2021/09/25 06:53:36;;;;;;;11.90;6.80;;;;;;;16.16;85.95;100818.17;112251;1190;72125;-75
2021/09/25 06:56:04;;;;;;;9.00;5.20;;;;;;;16.19;85.78;100817.79;112146;1192;72177;-73
2021/09/25 06:58:31;;;;;;;14.80;7.40;;;;;;;16.23;85.49;100823.50;112528;1190;61614;-75
2021/09/25 07:00:58;;;;;;;9.00;4.80;;;;;;;16.25;85.14;100825.86;112491;1190;60956;-74
2021/09/25 07:03:25;;;;;;;10.30;6.70;;;;;;;16.29;85.14;100825.18;112519;1191;74685;-75
2021/09/25 07:05:52;;;;;;;11.00;6.20;;;;;;;16.31;84.95;100829.96;112254;1190;72038;-76
2021/09/25 07:08:19;;;;;;;6.40;4.30;;;;;;;16.32;84.55;100827.44;112150;1190;73724;-76
2021/09/25 07:10:47;;;;;;;12.30;6.60;;;;;;;16.32;84.54;100833.65;112357;1193;61028;-73
2021/09/25 07:13:14;;;;;;;12.60;6.50;;;;;;;16.33;84.46;100836.78;112255;1190;61000;-73
2021/09/25 07:15:42;;;;;;;8.80;5.20;;;;;;;16.35;84.21;100838.77;112152;1192;75599;-75
2021/09/25 07:18:09;;;;;;;12.00;6.50;;;;;;;16.37;84.20;100838.04;112193;1192;71687;-75
2021/09/25 07:20:37;;;;;;;9.50;6.10;;;;;;;16.40;84.13;100837.92;112426;1192;73618;-73
2021/09/25 07:23:03;;;;;;;15.10;6.70;;;;;;;16.46;83.91;100842.73;112166;1190;62634;-75
2021/09/25 07:25:30;;;;;;;11.10;6.10;;;;;;;16.51;83.52;100843.98;112204;1193;61080;-75
2021/09/25 07:27:57;;;;;;;8.90;4.80;;;;;;;16.56;83.31;100847.61;112183;1190;61104;-73
2021/09/25 07:30:24;;;;;;;9.40;5.00;;;;;;;16.59;83.14;100851.79;112222;1190;70735;-73
2021/09/25 07:32:51;;;;;;;11.10;6.20;;;;;;;16.64;83.10;100850.95;112192;1190;71954;-73
2021/09/25 07:35:18;;;;;;;11.50;6.40;;;;;;;16.69;82.96;100854.20;112098;1191;61787;-73
2021/09/25 07:37:44;;;;;;;11.80;5.80;;;;;;;16.74;82.78;100860.27;112219;1190;61833;-73
2021/09/25 07:40:12;;;;;;;12.10;5.80;;;;;;;16.78;82.42;100864.38;112196;1191;61067;-73
2021/09/25 07:42:38;;;;;;;12.40;5.90;;;;;;;16.81;82.25;100869.17;112527;1190;70991;-75
2021/09/25 07:45:06;;;;;;;11.80;6.00;;;;;;;16.83;82.15;100872.10;112226;1191;73555;-75
2021/09/25 07:47:33;;;;;;;7.60;4.60;;;;;;;16.85;82.04;100877.62;112068;1192;61951;-75
2021/09/25 07:50:00;;;;;;;7.80;4.80;;;;;;;16.86;81.86;100876.77;112154;1193;61253;-73
2021/09/25 07:52:27;;;;;;;7.20;4.30;;;;;;;16.88;81.59;100877.52;112301;1191;61091;-74
2021/09/25 07:54:53;;;;;;;8.00;4.50;;;;;;;16.91;81.40;100880.60;112247;1192;61720;-75
2021/09/25 07:57:20;;;;;;;6.20;4.20;;;;;;;16.95;81.51;100884.38;112232;1192;62329;-75
2021/09/25 07:59:46;;;;;;;6.70;4.70;;;;;;;16.96;81.12;100888.42;112217;1190;61170;-75
2021/09/25 08:02:13;;;;;;;7.70;3.70;;;;;;;16.98;81.24;100888.66;112193;1190;61020;-75
2021/09/25 08:04:39;;;;;;;7.10;3.60;;;;;;;17.01;81.09;100888.60;112318;1191;74423;-74
2021/09/25 08:07:06;;;;;;;9.30;5.50;;;;;;;17.04;80.84;100891.93;112196;1190;61035;-74
2021/09/25 08:09:32;;;;;;;5.10;3.10;;;;;;;17.10;80.74;100895.33;112171;1190;70460;-73
2021/09/25 08:11:59;;;;;;;8.10;4.00;;;;;;;17.13;80.20;100893.66;112187;1190;61013;-75
2021/09/25 08:14:26;;;;;;;8.90;5.20;;;;;;;17.16;79.80;100896.58;111929;1192;61055;-74
2021/09/25 08:16:52;;;;;;;7.60;3.60;;;;;;;17.18;79.72;100898.52;112139;1193;75658;-73
2021/09/25 08:19:19;;;;;;;10.60;3.80;;;;;;;17.20;79.40;100899.11;112216;1190;70713;-75
2021/09/25 08:21:46;;;;;;;8.20;3.80;;;;;;;17.26;79.38;100898.39;112246;1190;61050;-74
2021/09/25 08:24:12;;;;;;;8.60;4.50;;;;;;;17.33;79.52;100900.26;112202;1193;61055;-75
2021/09/25 08:26:39;;;;;;;5.00;3.10;;;;;;;17.37;79.27;100902.98;112358;1192;61546;-75
2021/09/25 08:29:06;;;;;;;8.10;3.90;;;;;;;17.42;79.02;100910.06;112307;1192;61027;-74
2021/09/25 08:31:33;;;;;;;7.40;3.80;;;;;;;17.47;78.79;100915.56;112602;1193;72045;-75
2021/09/25 08:33:59;;;;;;;7.60;3.10;;;;;;;17.52;78.22;100916.80;112316;1192;73375;-74
2021/09/25 08:36:26;;;;;;;8.90;3.40;;;;;;;17.59;78.16;100914.46;115923;1184;60401;-74
2021/09/25 08:39:09;;;;;;;5.20;3.40;;;;;;;17.69;77.81;100918.23;113098;1190;61023;-75
2021/09/25 08:41:36;;;;;;;10.10;3.60;;;;;;;17.81;77.30;100915.23;112260;1191;74497;-76
2021/09/25 08:44:04;;;;;;;5.20;2.70;;;;;;;17.99;76.71;100914.86;112413;1193;72141;-76
2021/09/25 08:46:35;;;;;;;6.00;3.50;;;;;;;18.14;75.68;100917.06;112281;1191;72638;-76
2021/09/25 08:49:04;;;;;;;5.80;3.50;;;;;;;18.28;74.78;100922.80;112416;1191;61504;-74
2021/09/25 08:51:31;;;;;;;5.20;3.60;;;;;;;18.38;74.60;100925.84;112203;1190;61103;-71
2021/09/25 08:53:58;;;;;;;5.30;3.20;;;;;;;18.47;74.17;100924.29;112359;1190;75974;-72
2021/09/25 08:56:27;;;;;;;8.30;3.30;;;;;;;18.50;73.89;100927.69;112300;1192;71605;-72
2021/09/25 08:58:54;;;;;;;9.30;3.80;;;;;;;18.53;73.76;100923.27;112370;1190;72380;-72
2021/09/25 09:01:23;;;;;;;4.30;2.40;;;;;;;18.59;73.72;100922.21;112407;1191;60937;-72
2021/09/25 09:03:52;;;;;;;6.60;3.10;;;;;;;18.75;73.71;100917.35;112442;1191;61320;-72
2021/09/25 09:06:32;;;;;;;5.70;2.70;;;;;;;19.05;72.96;100917.94;112287;1190;75078;-72
2021/09/25 09:09:05;;;;;;;6.30;3.10;;;;;;;19.31;72.16;100916.20;112218;1190;72028;-75
2021/09/25 09:11:32;;;;;;;8.30;3.40;;;;;;;19.48;70.64;100923.58;112454;1193;73566;-73
2021/09/25 09:14:01;;;;;;;4.40;2.40;;;;;;;19.54;69.91;100926.80;112293;1191;61353;-73
2021/09/25 09:16:29;;;;;;;7.60;4.40;;;;;;;19.51;69.30;100932.43;112354;1192;60978;-74
2021/09/25 09:18:58;;;;;;;7.10;2.90;;;;;;;19.49;69.86;100927.38;112584;1190;75844;-72
2021/09/25 09:21:29;;;;;;;3.40;2.30;;;;;;;19.45;69.69;100934.83;112304;1192;71361;-73
2021/09/25 09:24:06;;;;;;;5.20;2.70;;;;;;;19.40;69.91;100932.83;112237;1190;71091;-74
2021/09/25 09:26:35;;;;;;;7.80;2.40;;;;;;;19.40;70.14;100928.73;112434;1192;61320;-74
2021/09/25 09:29:05;;;;;;;5.30;2.50;;;;;;;19.37;69.82;100935.56;112404;1190;61691;-73
2021/09/25 09:31:32;;;;;;;5.80;3.20;;;;;;;19.30;69.64;100932.77;112348;1190;75787;-74
2021/09/25 09:34:00;;;;;;;4.00;2.00;;;;;;;19.20;69.71;100935.88;112259;1190;70980;-73
2021/09/25 09:36:31;;;;;;;5.80;2.80;;;;;;;19.13;70.25;100940.33;112564;1191;73781;-73
2021/09/25 09:39:17;;;;;;;4.20;1.70;;;;;;;19.09;70.51;100938.27;112088;1193;61100;-73
2021/09/25 09:41:49;;;;;;;5.70;2.20;;;;;;;19.08;70.74;100940.65;112176;1190;61426;-72
2021/09/25 09:44:19;;;;;;;3.10;1.80;;;;;;;19.09;71.09;100939.35;112329;1192;75877;-74
2021/09/25 09:46:47;;;;;;;4.30;2.10;;;;;;;19.14;71.14;100935.89;112343;1192;71158;-74
2021/09/25 09:49:20;;;;;;;4.50;2.10;;;;;;;19.22;70.98;100939.39;112389;1192;71101;-74
2021/09/25 09:51:52;;;;;;;4.20;2.50;;;;;;;19.26;70.16;100942.94;112110;1193;61093;-74
2021/09/25 09:54:28;;;;;;;3.80;1.80;;;;;;;19.32;70.56;100942.63;111973;1192;61523;-72
2021/09/25 09:56:57;;;;;;;4.90;2.20;;;;;;;19.39;71.02;100947.66;112117;1190;74574;-74
2021/09/25 09:59:25;;;;;;;4.90;2.30;;;;;;;19.44;70.85;100945.81;112262;1192;71438;-74
2021/09/25 10:01:52;;;;;;;5.40;2.00;;;;;;;19.52;70.82;100948.66;112321;1190;72394;-74
2021/09/25 10:04:20;;;;;;;4.70;2.10;;;;;;;19.59;70.68;100953.03;112255;1190;61068;-74
2021/09/25 10:06:48;;;;;;;4.40;1.90;;;;;;;19.63;70.51;100955.41;112179;1192;61404;-74
2021/09/25 10:09:18;;;;;;;4.70;2.30;;;;;;;19.69;70.71;100954.67;112618;1192;74777;-72
2021/09/25 10:11:48;;;;;;;6.10;2.70;;;;;;;19.68;70.30;100954.10;112450;1193;72047;-75
2021/09/25 10:14:18;;;;;;;2.80;1.80;;;;;;;19.66;70.25;100955.49;112347;1190;74598;-74
2021/09/25 10:16:45;;;;;;;4.20;2.40;;;;;;;19.67;70.35;100957.35;112067;1193;62014;-74
2021/09/25 10:19:14;;;;;;;5.90;3.10;;;;;;;19.71;69.70;100957.20;112623;1190;60988;-74
2021/09/25 10:21:41;;;;;;;4.70;2.20;;;;;;;19.78;69.51;100957.23;112623;1192;74904;-74
2021/09/25 10:24:13;;;;;;;6.10;3.00;;;;;;;19.81;69.07;100951.75;112159;1192;71189;-74
2021/09/25 10:26:44;;;;;;;7.30;2.60;;;;;;;19.79;69.54;100953.60;112319;1192;73651;-74
2021/09/25 10:29:19;;;;;;;5.90;2.20;;;;;;;19.78;69.88;100953.45;112149;1190;61064;-75
2021/09/25 10:31:46;;;;;;;7.00;2.70;;;;;;;19.78;69.08;100951.09;112158;1190;61008;-75
2021/09/25 10:34:18;;;;;;;6.10;2.50;;;;;;;19.85;68.98;100959.36;112252;1193;74409;-74
2021/09/25 10:36:49;;;;;;;7.50;2.80;;;;;;;19.94;68.70;100956.84;112260;1192;70761;-74
2021/09/25 10:39:29;;;;;;;4.60;2.60;;;;;;;20.03;68.29;100957.63;112192;1192;73845;-74
2021/09/25 10:41:59;;;;;;;7.60;2.80;;;;;;;20.17;68.18;100956.29;112154;1190;61042;-74
2021/09/25 10:44:32;;;;;;;6.20;2.60;;;;;;;20.42;67.50;100956.91;112168;1191;61056;-72
2021/09/25 10:47:05;;;;;;;6.40;2.70;;;;;;;20.73;66.92;100961.86;112658;1191;74585;-74
2021/09/25 10:49:54;;;;;;;6.20;2.60;;;;;;;20.92;66.27;100958.80;112267;1192;70984;-72
2021/09/25 10:52:48;;;;;;;5.00;2.40;;;;;;;21.05;65.12;100958.80;112154;1193;72573;-73
2021/09/25 10:55:20;;;;;;;6.00;2.90;;;;;;;21.09;64.63;100956.09;112288;1191;62159;-72
2021/09/25 10:58:15;;;;;;;7.20;2.60;;;;;;;21.27;64.28;100961.13;112391;1190;60965;-73
2021/09/25 11:01:06;;;;;;;7.20;2.40;;;;;;;21.46;64.10;100962.16;112320;1191;75021;-73
2021/09/25 11:03:46;;;;;;;4.90;1.80;;;;;;;21.65;63.50;100959.83;112294;1190;71089;-73
2021/09/25 11:06:22;;;;;;;3.90;2.40;;;;;;;21.79;61.99;100962.35;112356;1193;72547;-73
2021/09/25 11:08:58;;;;;;;5.20;2.60;;;;;;;21.86;61.95;100965.09;112236;1193;62108;-72
2021/09/25 11:11:43;;;;;;;6.10;2.60;;;;;;;21.92;61.24;100969.89;112360;1190;61422;-73
2021/09/25 11:14:28;;;;;;;5.90;2.10;;;;;;;21.95;60.92;100968.03;112362;1191;75595;-72
2021/09/25 11:17:30;;;;;;;4.30;1.80;;;;;;;21.96;61.25;100963.20;112274;1190;71186;-72